METAR Data
IDs: Format: Raw Decoded Include TAF

Data at: 0545 UTC 19 Aug 2019

KHOT 190453Z AUTO 10005KT 10SM CLR 26/23 A2997 RMK AO2 SLP141 T02560228
KHOT 190353Z AUTO 10005KT 10SM FEW050 26/23 A2997 RMK AO2 SLP140 T02610233
KHOT 190253Z AUTO 09004KT 10SM CLR 26/24 A2995 RMK AO2 SLP134 T02610244 51029
KHOT 190153Z AUTO 09005KT 10SM CLR 27/24 A2993 RMK AO2 SLP127 T02720244
KHOT 190053Z AUTO 12003KT 10SM CLR 29/23 A2989 RMK AO2 SLP114 T02890233
KHOT 182353Z AUTO 31003KT 10SM CLR 30/24 A2986 RMK AO2 SLP103 T03000239 10356 20278 55019
KHOT 182253Z AUTO 00000KT 10SM SCT090 BKN110 28/24 A2982 RMK AO2 SLP091 T02830239
KHOT 182153Z AUTO VRB03KT 10SM SCT050 SCT100 29/21 A2993 RMK AO2 LTG DSNT NE SLP127 T02940211
KHOT 182053Z AUTO 23007KT 10SM SCT055 BKN080 33/23 A2992 RMK AO2 LTG DSNT ALQDS SLP123 T03330233 56007
KHOT 182004Z AUTO 24007G14KT 10SM SCT055 SCT065 35/23 A2992 RMK AO2 LTG DSNT N-E T03500228
KHOT 181953Z AUTO 23008KT 10SM VCTS SCT055 SCT075 BKN090 36/23 A2992 RMK AO2 LTG DSNT N-E SLP122 T03560233
KHOT 181949Z AUTO 21008KT 10SM VCTS FEW050 SCT060 SCT085 35/23 A2992 RMK AO2 LTG DSNT N-E
KHOT 181942Z AUTO VRB05KT 10SM FEW048 BKN085 BKN110 34/23 A2991 RMK AO2 LTG DSNT NE AND E T03440228
KHOT 181923Z AUTO 20007KT 10SM VCTS BKN049 BKN055 34/23 A2992 RMK AO2 LTG DSNT NE T03390233
KHOT 181853Z AUTO 23010G14KT 10SM SCT047 34/23 A2994 RMK AO2 LTG DSNT NE SLP130 T03440233
KHOT 181753Z AUTO VRB03KT 10SM FEW035 33/24 A2994 RMK AO2 SLP130 T03330239 10333 20256 58006
KHOT 181718Z AUTO 29005KT 10SM SCT029 32/24 A2996 RMK AO2 T03220239
KHOT 181706Z AUTO 29004KT 10SM BKN028 32/25 A2996 RMK AO2 T03220250
KHOT 181653Z AUTO 20006KT 10SM BKN030 BKN034 31/24 A2997 RMK AO2 SLP141 T03110244
KHOT 181645Z AUTO 25008KT 10SM BKN028 BKN034 32/24 A2997 RMK AO2 T03220244
KHOT 181630Z AUTO VRB05KT 10SM FEW022 SCT030 31/24 A2997 RMK AO2 T03110244
KHOT 181553Z AUTO VRB03KT 10SM BKN023 OVC031 29/25 A2997 RMK AO2 SLP141 T02940250
KHOT 181453Z AUTO 26007KT 9SM OVC015 27/25 A2996 RMK AO2 SLP137 T02720250 53016
KHOT 181444Z AUTO 27008KT 10SM OVC017 28/25 A2996 RMK AO2 T02780250
KHOT 181353Z AUTO 22005KT 10SM OVC013 28/25 A2993 RMK AO2 SLP128 T02780250
KHOT 181301Z AUTO 20003KT 10SM BKN012 27/24 A2992 RMK AO2 T02670244
KHOT 181253Z AUTO 20003KT 10SM SCT012 27/24 A2992 RMK AO2 SLP124 T02670244
KHOT 181153Z AUTO 00000KT 10SM CLR 26/24 A2991 RMK AO2 SLP121 T02560244 10278 20256 53003
KHOT 181053Z AUTO 00000KT 10SM FEW015 26/24 A2990 RMK AO2 SLP117 T02610239
KHOT 180953Z AUTO 00000KT 10SM CLR 26/24 A2991 RMK AO2 SLP119 T02610239
KHOT 180853Z AUTO 00000KT 10SM CLR 27/23 A2990 RMK AO2 SLP118 T02670233 55001
KHOT 180753Z AUTO 13003KT 10SM FEW075 26/23 A2990 RMK AO2 SLP117 T02610228
KHOT 180653Z AUTO 16005KT 10SM FEW075 27/23 A2991 RMK AO2 SLP119 T02670233
KHOT 180553Z AUTO 14004KT 10SM CLR 28/23 A2991 RMK AO2 SLP119 T02780233 10333 20278 403500228 50004
KHOT 180453Z AUTO 16004KT 10SM CLR 28/23 A2992 RMK AO2 SLP122 T02830233
KHOT 180353Z AUTO VRB04KT 10SM CLR 30/23 A2991 RMK AO2 SLP120 T03000228
KHOT 180253Z AUTO 15007KT 130V190 10SM CLR 31/22 A2989 RMK AO2 SLP114 T03060222 53010
KHOT 180153Z AUTO 13004KT 10SM CLR 31/22 A2988 RMK AO2 SLP109 T03110222
KHOT 180053Z AUTO 15005KT 10SM CLR 32/22 A2986 RMK AO2 SLP105 T03220217
KHOT 172353Z AUTO 17007KT 10SM CLR 33/21 A2986 RMK AO2 SLP103 T03330211 10350 20333 56009
KHOT 172253Z AUTO 19009KT 10SM CLR 34/21 A2987 RMK AO2 SLP106 T03440211
KHOT 172153Z AUTO 17010KT 10SM CLR 34/22 A2988 RMK AO2 SLP109 T03440217
KHOT 172053Z AUTO VRB05KT 10SM CLR 34/22 A2989 RMK AO2 SLP113 T03440217 56018
KHOT 171953Z AUTO 16007KT 120V180 10SM CLR 34/22 A2990 RMK AO2 SLP116 T03440217
KHOT 171853Z AUTO VRB03KT 10SM CLR 34/23 A2992 RMK AO2 SLP124 T03390228
KHOT 171753Z AUTO 15005KT 10SM CLR 33/23 A2994 RMK AO2 SLP131 T03330233 10339 20233 58003